createdAt,value
2024-03-12T00:00:30.093Z,9.00
2024-03-12T00:02:58.218Z,8.90
2024-03-12T00:05:25.920Z,8.90
2024-03-12T00:07:53.713Z,8.90
2024-03-12T00:10:21.634Z,8.90
2024-03-12T00:12:51.420Z,9.00
2024-03-12T00:15:21.433Z,9.00
2024-03-12T00:17:50.602Z,8.90
2024-03-12T00:20:19.380Z,8.90
2024-03-12T00:22:48.665Z,8.80
2024-03-12T00:25:17.784Z,8.70
2024-03-12T00:27:45.428Z,8.70
2024-03-12T00:30:14.785Z,8.60
2024-03-12T00:32:42.840Z,8.60
2024-03-12T00:35:14.257Z,8.50
2024-03-12T00:37:48.620Z,8.50
2024-03-12T00:40:18.138Z,8.20
2024-03-12T00:42:45.872Z,8.00
2024-03-12T00:45:14.668Z,8.00
2024-03-12T00:47:43.367Z,7.90
2024-03-12T00:50:12.834Z,8.00
2024-03-12T00:52:41.526Z,8.30
2024-03-12T00:55:10.779Z,8.40
2024-03-12T00:57:40.064Z,8.60
2024-03-12T01:00:18.077Z,8.60
2024-03-12T01:02:50.374Z,8.60
2024-03-12T01:05:21.974Z,8.60
2024-03-12T01:07:49.599Z,8.30
2024-03-12T01:10:21.982Z,8.40
2024-03-12T01:12:52.760Z,8.40
2024-03-12T01:15:22.087Z,8.40
2024-03-12T01:17:50.036Z,8.40
2024-03-12T01:20:20.361Z,8.30
2024-03-12T01:22:51.830Z,8.30
2024-03-12T01:25:22.684Z,8.20
2024-03-12T01:27:53.499Z,8.20
2024-03-12T01:30:27.942Z,8.20
2024-03-12T01:32:58.801Z,8.00
2024-03-12T01:35:26.846Z,7.90
2024-03-12T01:37:54.695Z,7.90
2024-03-12T01:40:31.839Z,7.50
2024-03-12T01:43:20.448Z,7.40
2024-03-12T01:45:48.286Z,7.30
2024-03-12T01:48:16.565Z,7.50
2024-03-12T01:50:45.181Z,7.70
2024-03-12T01:53:13.881Z,7.80
2024-03-12T01:55:45.136Z,7.90
2024-03-12T01:58:17.586Z,7.90
2024-03-12T02:00:47.265Z,7.80
2024-03-12T02:03:20.135Z,7.70
2024-03-12T02:05:48.374Z,7.60
2024-03-12T02:08:18.192Z,7.50
2024-03-12T02:10:47.294Z,7.50
2024-03-12T02:13:15.246Z,7.60
2024-03-12T02:15:43.291Z,7.40
2024-03-12T02:18:11.249Z,7.20
2024-03-12T02:20:41.833Z,7.10
2024-03-12T02:23:09.535Z,7.00
2024-03-12T02:25:37.187Z,6.90
2024-03-12T02:28:05.330Z,7.00
2024-03-12T02:30:33.254Z,6.90
2024-03-12T02:33:04.156Z,7.10
2024-03-12T02:35:36.068Z,7.20
2024-03-12T02:38:04.143Z,7.10
2024-03-12T02:40:31.885Z,6.90
2024-03-12T02:42:59.584Z,6.90
2024-03-12T02:45:27.624Z,7.10
2024-03-12T02:47:56.248Z,6.90
2024-03-12T02:50:25.757Z,6.90
2024-03-12T02:52:53.635Z,7.20
2024-03-12T02:55:21.729Z,7.20
2024-03-12T02:57:49.563Z,7.20
2024-03-12T03:00:17.900Z,7.30
2024-03-12T03:02:45.935Z,7.30
2024-03-12T03:05:14.733Z,7.20
2024-03-12T03:07:43.815Z,7.20
2024-03-12T03:10:13.315Z,7.10
2024-03-12T03:12:45.516Z,6.90
2024-03-12T03:15:14.543Z,6.60
2024-03-12T03:17:47.343Z,6.50
2024-03-12T03:20:18.573Z,6.40
2024-03-12T03:22:46.699Z,6.40
2024-03-12T03:25:15.242Z,6.30
2024-03-12T03:27:43.618Z,6.20
2024-03-12T03:30:17.263Z,6.20
2024-03-12T03:32:49.610Z,6.30
2024-03-12T03:35:19.565Z,6.20
2024-03-12T03:37:47.760Z,6.10
2024-03-12T03:40:24.927Z,6.00
2024-03-12T03:42:54.656Z,6.00
2024-03-12T03:45:22.606Z,6.10
2024-03-12T03:47:50.787Z,6.00
2024-03-12T03:50:18.951Z,6.10
2024-03-12T03:52:46.622Z,6.00
2024-03-12T03:55:15.459Z,6.20
2024-03-12T03:57:43.205Z,6.40
2024-03-12T04:00:14.437Z,6.40
2024-03-12T04:02:46.202Z,6.50
2024-03-12T04:05:14.232Z,6.40
2024-03-12T04:07:45.820Z,6.20
2024-03-12T04:10:14.281Z,6.30
2024-03-12T04:12:46.381Z,6.20
2024-03-12T04:15:14.690Z,6.20
2024-03-12T04:17:45.198Z,6.30
2024-03-12T04:20:13.622Z,6.50
2024-03-12T04:22:45.369Z,6.50
2024-03-12T04:25:14.072Z,6.50
2024-03-12T04:27:42.371Z,6.50
2024-03-12T04:30:12.040Z,6.50
2024-03-12T04:32:40.801Z,6.50
2024-03-12T04:35:11.182Z,6.50
2024-03-12T04:37:40.195Z,6.50
2024-03-12T04:40:09.035Z,6.50
2024-03-12T04:42:38.539Z,6.50
2024-03-12T04:45:08.607Z,6.50
2024-03-12T04:47:39.305Z,6.40
2024-03-12T04:50:09.656Z,6.40
2024-03-12T04:52:37.555Z,6.40
2024-03-12T04:55:06.785Z,6.30
2024-03-12T04:57:36.944Z,6.20
2024-03-12T05:00:15.907Z,6.00
2024-03-12T05:02:45.055Z,5.90
2024-03-12T05:05:19.742Z,5.90
2024-03-12T05:07:48.996Z,6.00
2024-03-12T05:10:17.630Z,6.00
2024-03-12T05:12:45.514Z,6.00
2024-03-12T05:15:13.221Z,6.00
2024-03-12T05:17:41.272Z,6.00
2024-03-12T05:20:15.613Z,6.10
2024-03-12T05:22:43.432Z,6.00
2024-03-12T05:25:12.122Z,6.00
2024-03-12T05:27:44.372Z,5.90
2024-03-12T05:30:16.408Z,5.90
2024-03-12T05:32:47.821Z,6.00
2024-03-12T05:35:23.416Z,6.00
2024-03-12T05:38:13.420Z,5.70
2024-03-12T05:40:45.255Z,5.60
2024-03-12T05:43:32.740Z,5.50
2024-03-12T05:46:19.307Z,5.50
2024-03-12T05:48:53.801Z,5.40
2024-03-12T05:51:21.911Z,5.40
2024-03-12T05:53:49.816Z,5.50
2024-03-12T05:56:19.497Z,5.40
2024-03-12T05:58:47.885Z,5.20
2024-03-12T06:01:16.238Z,5.20
2024-03-12T06:03:45.029Z,5.30
2024-03-12T06:06:14.195Z,5.20
2024-03-12T06:08:42.105Z,5.20
2024-03-12T06:11:09.916Z,5.20
2024-03-12T06:13:37.814Z,5.20
2024-03-12T06:16:09.102Z,5.20
2024-03-12T06:18:37.342Z,5.30
2024-03-12T06:21:07.458Z,5.20
2024-03-12T06:23:36.755Z,5.20
2024-03-12T06:26:05.891Z,5.30
2024-03-12T06:28:33.798Z,5.30
2024-03-12T06:31:01.589Z,5.30
2024-03-12T06:33:29.314Z,5.30
2024-03-12T06:35:57.318Z,5.20
2024-03-12T06:38:25.020Z,5.20
2024-03-12T06:40:52.777Z,5.10
2024-03-12T06:43:21.381Z,5.20
2024-03-12T06:45:49.214Z,5.30
2024-03-12T06:48:19.678Z,5.30
2024-03-12T06:50:47.636Z,5.30
2024-03-12T06:53:16.673Z,5.50
2024-03-12T06:55:47.407Z,5.50
2024-03-12T06:58:20.548Z,5.60
2024-03-12T07:00:52.230Z,5.20
2024-03-12T07:03:23.500Z,5.50
2024-03-12T07:05:52.266Z,5.70
2024-03-12T07:08:22.945Z,5.90
2024-03-12T07:10:52.034Z,6.00
2024-03-12T07:13:24.574Z,6.10
2024-03-12T07:15:52.576Z,6.20
2024-03-12T07:18:22.615Z,6.30
2024-03-12T07:20:54.041Z,6.40
2024-03-12T07:23:22.060Z,6.40
2024-03-12T07:25:49.836Z,6.40
2024-03-12T07:28:19.847Z,6.40
2024-03-12T07:30:49.943Z,6.60
2024-03-12T07:33:17.897Z,6.50
2024-03-12T07:35:45.743Z,6.40
2024-03-12T07:38:13.629Z,6.40
2024-03-12T07:40:44.705Z,6.50
2024-03-12T07:43:12.957Z,6.60
2024-03-12T07:45:47.685Z,6.70
2024-03-12T07:48:18.291Z,6.90
2024-03-12T07:50:46.109Z,7.00
2024-03-12T07:53:13.959Z,7.10
2024-03-12T07:55:43.572Z,7.20
2024-03-12T07:58:12.446Z,7.20
2024-03-12T08:00:40.433Z,7.30
2024-03-12T08:03:08.851Z,7.30
2024-03-12T08:05:36.521Z,7.30
2024-03-12T08:08:07.713Z,7.30
2024-03-12T08:10:35.671Z,7.40
2024-03-12T08:13:03.449Z,7.70
2024-03-12T08:15:31.166Z,7.70
2024-03-12T08:18:06.152Z,7.70
2024-03-12T08:20:40.972Z,7.60
2024-03-12T08:23:08.726Z,7.70
2024-03-12T08:25:49.956Z,8.00
2024-03-12T08:28:23.191Z,8.20
2024-03-12T08:30:51.029Z,8.50
2024-03-12T08:33:20.401Z,8.70
2024-03-12T08:35:48.427Z,8.50
2024-03-12T08:38:17.179Z,8.40
2024-03-12T08:40:45.339Z,8.50
2024-03-12T08:43:14.537Z,8.70
2024-03-12T08:45:42.733Z,8.70
2024-03-12T08:48:10.841Z,8.90
2024-03-12T08:50:38.858Z,9.10
2024-03-12T08:53:06.944Z,9.30
2024-03-12T08:55:35.947Z,9.50
2024-03-12T08:58:04.157Z,9.50
2024-03-12T09:00:33.585Z,9.70
2024-03-12T09:03:02.199Z,9.90
2024-03-12T09:05:30.230Z,10.10
2024-03-12T09:07:58.255Z,10.30
2024-03-12T09:10:26.277Z,10.60
2024-03-12T09:12:54.275Z,10.60
2024-03-12T09:15:25.192Z,10.70
2024-03-12T09:17:54.203Z,10.90
2024-03-12T09:20:23.146Z,11.00
2024-03-12T09:22:51.789Z,11.10
2024-03-12T09:25:20.404Z,11.10
2024-03-12T09:27:48.532Z,11.20
2024-03-12T09:30:18.375Z,11.50
2024-03-12T09:32:46.300Z,11.50
2024-03-12T09:35:14.208Z,11.70
2024-03-12T09:37:42.243Z,11.90
2024-03-12T09:40:12.853Z,12.00
2024-03-12T09:42:45.821Z,12.10
2024-03-12T09:45:13.959Z,12.10
2024-03-12T09:47:43.861Z,12.20
2024-03-12T09:50:18.281Z,12.40
2024-03-12T09:52:49.460Z,12.50
2024-03-12T09:55:19.630Z,12.50
2024-03-12T09:57:48.194Z,12.50
2024-03-12T10:00:29.070Z,12.60
2024-03-12T10:02:57.029Z,12.80
2024-03-12T10:05:25.310Z,12.90
2024-03-12T10:08:15.791Z,13.00
2024-03-12T10:10:48.600Z,13.20
2024-03-12T10:13:18.155Z,13.20
2024-03-12T10:15:51.738Z,13.30
2024-03-12T10:18:20.621Z,13.40
2024-03-12T10:20:58.934Z,13.50
2024-03-12T10:23:28.859Z,13.50
2024-03-12T10:26:11.781Z,13.60
2024-03-12T10:28:41.265Z,13.90
2024-03-12T10:31:13.515Z,14.00
2024-03-12T10:33:44.192Z,14.20
2024-03-12T10:36:12.549Z,14.40
2024-03-12T10:38:41.708Z,14.60
2024-03-12T10:41:22.304Z,14.70
2024-03-12T10:43:52.027Z,14.70
2024-03-12T10:46:21.109Z,14.80
2024-03-12T10:48:51.661Z,15.00
2024-03-12T10:51:20.839Z,15.30
2024-03-12T10:53:54.740Z,15.50
2024-03-12T10:56:23.439Z,15.70
2024-03-12T10:58:55.999Z,15.80
2024-03-12T11:01:25.292Z,15.90
2024-03-12T11:03:58.105Z,16.10
2024-03-12T11:06:27.373Z,16.20
2024-03-12T11:08:56.892Z,16.40
2024-03-12T11:11:24.810Z,16.40
2024-03-12T11:13:54.412Z,16.40
2024-03-12T11:16:22.451Z,16.40
2024-03-12T11:18:50.541Z,16.60
2024-03-12T11:21:32.693Z,16.70
2024-03-12T11:24:00.643Z,16.90
2024-03-12T11:29:01.588Z,17.20
2024-03-12T11:31:38.174Z,17.50
2024-03-12T11:34:06.582Z,17.50
2024-03-12T11:36:41.451Z,17.60
2024-03-12T11:39:13.694Z,17.70
2024-03-12T11:42:02.907Z,17.70
2024-03-12T11:44:56.716Z,17.50
2024-03-12T11:47:35.190Z,17.80
2024-03-12T11:50:06.274Z,18.00
2024-03-12T11:52:35.052Z,18.30
2024-03-12T11:55:05.607Z,18.30
2024-03-12T11:57:33.751Z,18.50
2024-03-12T12:00:03.573Z,18.60
2024-03-12T12:02:43.958Z,18.60
2024-03-12T12:05:14.557Z,18.70
2024-03-12T12:07:42.424Z,18.70
2024-03-12T12:10:12.178Z,18.70
2024-03-12T12:12:40.243Z,18.80
2024-03-12T12:15:12.050Z,19.00
2024-03-12T12:17:39.740Z,18.90
2024-03-12T12:20:19.730Z,18.90
2024-03-12T12:22:48.173Z,19.00
2024-03-12T12:25:20.191Z,19.00
2024-03-12T12:27:48.626Z,19.20
2024-03-12T12:30:18.695Z,19.00
2024-03-12T12:32:47.087Z,19.20
2024-03-12T12:35:16.412Z,19.50
2024-03-12T12:37:47.270Z,19.80
2024-03-12T12:40:19.078Z,19.80
2024-03-12T12:42:51.868Z,19.90
2024-03-12T12:45:20.147Z,19.80
2024-03-12T12:47:51.539Z,19.90
2024-03-12T12:50:31.395Z,20.00
2024-03-12T12:53:05.808Z,19.70
2024-03-12T12:55:33.796Z,19.90
2024-03-12T12:58:08.075Z,19.70
2024-03-12T13:00:41.554Z,19.70
2024-03-12T13:03:19.024Z,20.00
2024-03-12T13:05:48.091Z,19.90
2024-03-12T13:08:23.656Z,19.90
2024-03-12T13:11:06.318Z,19.90
2024-03-12T13:13:36.482Z,20.00
2024-03-12T13:16:30.442Z,20.00
2024-03-12T13:18:58.263Z,19.90
2024-03-12T13:21:26.832Z,19.50
2024-03-12T13:23:55.053Z,19.50
2024-03-12T13:26:24.380Z,19.50
2024-03-12T13:28:55.473Z,19.70
2024-03-12T13:31:23.901Z,19.90
2024-03-12T13:33:54.887Z,20.10
2024-03-12T13:36:26.524Z,20.30
2024-03-12T13:38:54.966Z,19.80
2024-03-12T13:41:26.111Z,19.60
2024-03-12T13:43:56.324Z,20.00
2024-03-12T13:46:25.727Z,20.00
2024-03-12T13:49:15.687Z,19.90
2024-03-12T13:51:44.713Z,19.80
2024-03-12T13:54:12.676Z,19.40
2024-03-12T13:56:41.451Z,19.20
2024-03-12T13:59:09.246Z,19.70
2024-03-12T14:01:38.309Z,19.50
2024-03-12T14:04:07.923Z,19.50
2024-03-12T14:06:36.233Z,19.50
2024-03-12T14:09:06.249Z,19.80
2024-03-12T14:11:34.069Z,19.80
2024-03-12T14:14:02.084Z,19.90
2024-03-12T14:16:31.428Z,19.70
2024-03-12T14:18:59.304Z,19.80
2024-03-12T14:21:28.823Z,19.80
2024-03-12T14:23:58.717Z,19.30
2024-03-12T14:26:26.564Z,19.30
2024-03-12T14:28:54.277Z,19.60
2024-03-12T14:31:22.043Z,19.70
2024-03-12T14:33:50.018Z,19.50
2024-03-12T14:36:18.404Z,19.20
2024-03-12T14:38:47.007Z,18.90
2024-03-12T14:41:15.807Z,18.90
2024-03-12T14:43:43.421Z,19.00
2024-03-12T14:46:13.704Z,19.20
2024-03-12T14:48:41.568Z,19.00
2024-03-12T14:51:09.992Z,19.00
2024-03-12T14:53:37.733Z,19.10
2024-03-12T14:56:06.103Z,19.10
2024-03-12T14:58:33.914Z,18.80
2024-03-12T15:01:01.654Z,18.70
2024-03-12T15:03:29.498Z,18.60
2024-03-12T15:05:58.762Z,18.40
2024-03-12T15:08:26.561Z,18.60
2024-03-12T15:10:54.264Z,18.50
2024-03-12T15:13:22.177Z,18.30
2024-03-12T15:15:51.333Z,18.60
2024-03-12T15:18:21.402Z,18.40
2024-03-12T15:20:49.482Z,18.50
2024-03-12T15:23:17.239Z,18.60
2024-03-12T15:25:44.997Z,18.50
2024-03-12T15:28:12.800Z,18.40
2024-03-12T15:30:43.406Z,18.30
2024-03-12T15:33:12.423Z,18.30
2024-03-12T15:35:40.710Z,18.40
2024-03-12T15:38:08.591Z,18.50
2024-03-12T15:40:36.541Z,18.50
2024-03-12T15:43:07.019Z,18.50
2024-03-12T15:45:35.228Z,18.50
2024-03-12T15:48:05.010Z,18.40
2024-03-12T15:50:33.406Z,18.40
2024-03-12T15:53:01.205Z,18.40
2024-03-12T15:55:29.131Z,18.40
2024-03-12T15:57:57.089Z,18.10
2024-03-12T16:00:25.208Z,18.20
2024-03-12T16:02:52.965Z,18.10
2024-03-12T16:05:20.996Z,18.00
2024-03-12T16:07:49.676Z,17.90
2024-03-12T16:10:17.868Z,18.00
2024-03-12T16:12:46.532Z,18.10
2024-03-12T16:15:15.524Z,17.90
2024-03-12T16:17:43.990Z,17.70
2024-03-12T16:20:15.840Z,17.60
2024-03-12T16:22:44.524Z,17.50
2024-03-12T16:25:12.654Z,17.50
2024-03-12T16:27:43.927Z,17.60
2024-03-12T16:30:15.186Z,17.60
2024-03-12T16:32:45.061Z,17.50
2024-03-12T16:35:16.558Z,17.40
2024-03-12T16:37:45.178Z,17.50
2024-03-12T16:40:13.788Z,17.40
2024-03-12T16:42:43.655Z,17.30
2024-03-12T16:45:12.568Z,17.20
2024-03-12T16:47:40.750Z,17.10
2024-03-12T16:50:14.664Z,17.10
2024-03-12T16:52:42.911Z,17.10
2024-03-12T16:55:13.670Z,17.00
2024-03-12T16:57:44.129Z,17.00
2024-03-12T17:00:16.962Z,17.00
2024-03-12T17:02:47.328Z,16.80
2024-03-12T17:05:20.511Z,16.60
2024-03-12T17:07:52.290Z,16.50
2024-03-12T17:10:24.769Z,16.50
2024-03-12T17:12:56.401Z,16.30
2024-03-12T17:15:24.832Z,16.20
2024-03-12T17:17:55.331Z,16.20
2024-03-12T17:20:26.362Z,16.00
2024-03-12T17:22:54.339Z,15.70
2024-03-12T17:25:24.871Z,15.60
2024-03-12T17:27:55.356Z,15.40
2024-03-12T17:30:25.974Z,15.30
2024-03-12T17:32:56.562Z,15.30
2024-03-12T17:35:25.114Z,15.10
2024-03-12T17:37:59.273Z,15.00
2024-03-12T17:40:29.411Z,15.00
2024-03-12T17:43:03.524Z,14.80
2024-03-12T17:45:33.542Z,14.70
2024-03-12T17:48:08.120Z,14.60
2024-03-12T17:50:38.221Z,14.50
2024-03-12T17:53:11.015Z,14.40
2024-03-12T17:55:43.674Z,14.50
2024-03-12T17:58:14.784Z,14.40
2024-03-12T18:00:44.846Z,14.70
2024-03-12T18:03:16.108Z,14.80
2024-03-12T18:05:44.230Z,14.80
2024-03-12T18:08:26.148Z,14.60
2024-03-12T18:10:58.327Z,14.40
2024-03-12T18:13:29.451Z,14.30
2024-03-12T18:15:57.620Z,14.20
2024-03-12T18:18:26.007Z,14.30
2024-03-12T18:20:53.970Z,14.40
2024-03-12T18:23:29.995Z,14.40
2024-03-12T18:26:00.842Z,14.10
2024-03-12T18:28:31.621Z,14.00
2024-03-12T18:31:00.778Z,13.80
2024-03-12T18:33:28.473Z,13.70
2024-03-12T18:35:59.511Z,13.60
2024-03-12T18:38:27.309Z,13.70
2024-03-12T18:40:55.732Z,13.80
2024-03-12T18:43:28.578Z,13.90
2024-03-12T18:45:58.627Z,13.80
2024-03-12T18:48:33.867Z,13.80
2024-03-12T18:51:06.088Z,13.70
2024-03-12T18:53:34.972Z,13.70
2024-03-12T18:56:08.488Z,13.80
2024-03-12T18:58:36.504Z,13.80
2024-03-12T19:01:05.328Z,13.80
2024-03-12T19:03:56.219Z,13.80
2024-03-12T19:06:27.320Z,14.00
2024-03-12T19:09:03.481Z,14.00
2024-03-12T19:11:41.228Z,13.90
2024-03-12T19:14:09.423Z,13.90
2024-03-12T19:16:43.580Z,13.90
2024-03-12T19:19:11.645Z,13.70
2024-03-12T19:21:42.601Z,13.40
2024-03-12T19:24:13.347Z,13.30
2024-03-12T19:26:43.898Z,13.30
2024-03-12T19:29:13.376Z,13.20
2024-03-12T19:31:44.268Z,13.20
2024-03-12T19:34:17.273Z,13.20
2024-03-12T19:36:56.807Z,13.30
2024-03-12T19:39:30.317Z,13.00
2024-03-12T19:42:01.051Z,12.90
2024-03-12T19:44:29.072Z,12.90
2024-03-12T19:46:57.415Z,13.00
2024-03-12T19:49:25.918Z,13.10
2024-03-12T19:54:39.431Z,13.00
2024-03-12T19:57:14.878Z,13.00
2024-03-12T19:59:46.161Z,13.00
2024-03-12T20:02:15.081Z,12.90
2024-03-12T20:04:46.827Z,13.10
2024-03-12T20:07:17.092Z,13.00
2024-03-12T20:09:50.036Z,13.00
2024-03-12T20:12:17.933Z,13.00
2024-03-12T20:14:48.546Z,13.00
2024-03-12T20:17:22.345Z,13.00
2024-03-12T20:19:58.536Z,13.10
2024-03-12T20:22:31.069Z,12.90
2024-03-12T20:25:01.271Z,12.80
2024-03-12T20:27:40.758Z,12.70
2024-03-12T20:30:15.188Z,12.60
2024-03-12T20:32:48.898Z,12.50
2024-03-12T20:35:21.133Z,12.60
2024-03-12T20:38:05.138Z,12.60
2024-03-12T20:40:36.932Z,12.70
2024-03-12T20:43:07.771Z,12.70
2024-03-12T20:45:41.458Z,12.60
2024-03-12T20:48:12.410Z,12.30
2024-03-12T20:50:46.380Z,12.20
2024-03-12T20:53:18.091Z,12.20
2024-03-12T20:55:45.943Z,12.10
2024-03-12T20:58:21.607Z,12.20
2024-03-12T21:00:51.986Z,12.30
2024-03-12T21:03:20.161Z,12.30
2024-03-12T21:05:52.466Z,12.30
2024-03-12T21:08:24.645Z,12.30
2024-03-12T21:10:54.900Z,12.20
2024-03-12T21:13:29.038Z,12.00
2024-03-12T21:15:59.949Z,11.90
2024-03-12T21:18:29.089Z,11.80
2024-03-12T21:21:02.784Z,11.70
2024-03-12T21:23:33.018Z,11.70
2024-03-12T21:26:06.891Z,11.80
2024-03-12T21:28:36.719Z,11.70
2024-03-12T21:31:06.458Z,11.60
2024-03-12T21:33:36.219Z,11.60
2024-03-12T21:36:10.430Z,11.70
2024-03-12T21:38:39.548Z,11.70
2024-03-12T21:41:12.723Z,11.50
2024-03-12T21:43:46.150Z,11.40
2024-03-12T21:46:25.416Z,11.40
2024-03-12T21:48:55.646Z,11.40
2024-03-12T21:51:29.540Z,11.40
2024-03-12T21:54:00.343Z,11.40
2024-03-12T21:56:28.022Z,11.40
2024-03-12T21:59:01.574Z,11.40
2024-03-12T22:01:29.372Z,11.40
2024-03-12T22:03:59.977Z,11.60
2024-03-12T22:06:29.024Z,11.60
2024-03-12T22:08:58.004Z,11.60
2024-03-12T22:11:27.998Z,11.30
2024-03-12T22:13:55.845Z,11.20
2024-03-12T22:16:36.076Z,11.10
2024-03-12T22:19:07.522Z,11.10
2024-03-12T22:21:36.241Z,11.20
2024-03-12T22:24:07.930Z,11.20
2024-03-12T22:26:38.195Z,11.40
2024-03-12T22:29:09.176Z,11.30
2024-03-12T22:31:38.267Z,11.40
2024-03-12T22:34:05.899Z,11.30
2024-03-12T22:36:33.627Z,11.30
2024-03-12T22:39:01.799Z,11.40
2024-03-12T22:41:31.000Z,11.50
2024-03-12T22:43:59.756Z,11.50
2024-03-12T22:46:29.029Z,11.50
2024-03-12T22:48:57.074Z,11.60
2024-03-12T22:51:25.068Z,11.60
2024-03-12T22:53:52.979Z,11.50
2024-03-12T22:56:22.524Z,11.40
2024-03-12T22:58:50.638Z,11.40
2024-03-12T23:01:18.787Z,11.30
2024-03-12T23:03:47.212Z,11.30
2024-03-12T23:06:15.299Z,11.30
2024-03-12T23:08:43.836Z,11.50
2024-03-12T23:11:12.168Z,11.50
2024-03-12T23:13:40.084Z,11.50
2024-03-12T23:16:08.182Z,11.50
2024-03-12T23:18:38.142Z,11.40
2024-03-12T23:21:06.343Z,11.20
2024-03-12T23:23:34.155Z,11.10
2024-03-12T23:26:02.320Z,11.10
2024-03-12T23:28:30.085Z,11.10
2024-03-12T23:30:59.098Z,11.00
2024-03-12T23:33:28.912Z,11.00
2024-03-12T23:35:57.848Z,11.20
2024-03-12T23:38:25.593Z,11.20
2024-03-12T23:40:54.516Z,11.30
2024-03-12T23:43:22.480Z,11.50
2024-03-12T23:45:50.406Z,11.60
2024-03-12T23:48:18.240Z,11.60
2024-03-12T23:50:46.093Z,11.50
2024-03-12T23:53:15.076Z,11.40
2024-03-12T23:55:44.144Z,11.40
2024-03-12T23:58:11.918Z,11.40
